Terminal Aerodrome Forecast
Issued by NWS Cleveland, OH

Current Version | Previous Version | Text Only | Print | Product List | Glossary On
Versions: 1 2 3 4 5 6 7 8 9 10 11 12 13 14 15 16 17
763
FTUS41 KCLE 302116 AAA
TAFERI
TAF AMD
KERI 302116Z 3021/3118 07006KT P6SM SCT035 BKN250
     FM310000 VRB03KT P6SM SCT150
     FM310900 VRB03KT 4SM BR BKN015
     FM311500 29007KT P6SM BKN035=

USA.gov is the U.S. government's official web portal to all federal, state and local government web resources and services.